X  Schließen METAR Luftfahrt Wetterdaten     EDDH Hamburg Helmut Schmidt Airport
Temperatur
14°C Temperatur
8°C Taupunkt
67% Feuchtigkeit



Wind
24 KM/S
15 MPS
7 M/S
13 KTS



300°
WNW
Aktuelle Wetterlage

Teilweise bewölkt Teilweise bewölkt
Luftdruck 1019.92 (hPa) - 30.12 (inHg)
Sichtweite 6.2 (Meile) - 10 (Km)
Flughafen
Flughafen Code EDDH

Position : Hamburg Helmut Schmidt Airport
Entfernung: 11 (Km)

Metar:
EDDH 121950Z 30013KT 9999 FEW030 14/08 Q1020 BECMG 29007KT

Zeit: 12-06-2021 21:50 CEST